Time;durP1;ratioP1;P1;durP2;ratioP2;P2;SDS_P1;SDS_P2;PMS_P1;PMS_P2;Temp;Humidity;BMP_temperature;BMP_pressure;BME280_temperature;BME280_humidity;BME280_pressure;Samples;Min_cycle;Max_cycle;Signal;HPM_P1;HPM_P2
2023/05/19 00:02:32;;;;;;;15.30;5.70;;;;;;;;;;10237720;28;20023;-84
2023/05/19 00:07:33;;;;;;;14.27;6.97;;;;;;;;;;10241349;28;20087;-85
2023/05/19 00:12:35;;;;;;;14.50;7.00;;;;;;;;;;10241319;28;20130;-84
2023/05/19 00:17:37;;;;;;;15.17;6.17;;;;;;;;;;10230117;28;20027;-84
2023/05/19 00:22:38;;;;;;;14.90;6.37;;;;;;;;;;10223758;28;20773;-84
2023/05/19 00:27:39;;;;;;;16.97;6.83;;;;;;;;;;10241482;28;20039;-84
2023/05/19 00:32:40;;;;;;;13.17;6.47;;;;;;;;;;10212665;28;20039;-84
2023/05/19 00:37:40;;;;;;;14.63;7.23;;;;;;;;;;10240882;28;20046;-84
2023/05/19 00:42:42;;;;;;;15.53;6.50;;;;;;;;;;10236940;28;20035;-84
2023/05/19 00:47:42;;;;;;;14.90;6.27;;;;;;;;;;10236114;28;20035;-85
2023/05/19 00:52:45;;;;;;;16.30;6.60;;;;;;;;;;10239597;28;20443;-85
2023/05/19 00:57:46;;;;;;;16.00;6.70;;;;;;;;;;10231324;28;20027;-85
2023/05/19 01:02:49;;;;;;;21.00;7.30;;;;;;;;;;10223400;28;20036;-84
2023/05/19 01:07:55;;;;;;;12.60;6.40;;;;;;;;;;10239205;28;20566;-84
2023/05/19 01:12:58;;;;;;;11.17;5.70;;;;;;;;;;10253324;28;20038;-84
2023/05/19 01:18:11;;;;;;;13.23;6.40;;;;;;;;;;10233499;28;20047;-84
2023/05/19 01:23:35;;;;;;;13.93;5.33;;;;;;;;;;10252517;28;20034;-84
2023/05/19 01:28:47;;;;;;;10.83;5.80;;;;;;;;;;10247486;28;20681;-85
2023/05/19 01:33:51;;;;;;;12.00;5.97;;;;;;;;;;10243086;28;20380;-84
2023/05/19 01:38:55;;;;;;;15.60;5.40;;;;;;;;;;10246722;28;20047;-84
2023/05/19 01:43:56;;;;;;;11.07;5.20;;;;;;;;;;10246856;28;20023;-84
2023/05/19 01:48:58;;;;;;;11.63;5.93;;;;;;;;;;10235693;28;20523;-84
2023/05/19 01:54:01;;;;;;;16.30;5.90;;;;;;;;;;10229242;28;20043;-84
2023/05/19 01:59:08;;;;;;;14.23;7.00;;;;;;;;;;10247089;28;20038;-84
2023/05/19 02:04:17;;;;;;;15.33;6.77;;;;;;;;;;10244767;28;20051;-85
2023/05/19 02:09:38;;;;;;;13.83;6.57;;;;;;;;;;10246884;28;20483;-84
2023/05/19 02:14:50;;;;;;;13.43;6.57;;;;;;;;;;10231682;28;20570;-84
2023/05/19 02:19:51;;;;;;;15.47;6.70;;;;;;;;;;10244566;28;20039;-83
2023/05/19 02:24:52;;;;;;;13.87;6.03;;;;;;;;;;10239716;28;20046;-84
2023/05/19 02:29:53;;;;;;;14.17;6.07;;;;;;;;;;10224434;28;20054;-83
2023/05/19 02:34:55;;;;;;;12.60;6.13;;;;;;;;;;10244634;28;20043;-84
2023/05/19 02:39:56;;;;;;;14.00;5.60;;;;;;;;;;10242884;28;20380;-83
2023/05/19 02:44:57;;;;;;;9.93;5.43;;;;;;;;;;10239812;28;20046;-84
2023/05/19 02:49:58;;;;;;;15.50;5.73;;;;;;;;;;10245366;28;20141;-83
2023/05/19 02:54:59;;;;;;;11.63;5.47;;;;;;;;;;10226727;28;20035;-83
2023/05/19 03:00:00;;;;;;;13.53;5.37;;;;;;;;;;10226257;28;20039;-83
2023/05/19 03:05:02;;;;;;;14.50;6.30;;;;;;;;;;10244994;28;20054;-83
2023/05/19 03:10:05;;;;;;;12.80;6.67;;;;;;;;;;10218091;28;20187;-83
2023/05/19 03:15:06;;;;;;;16.00;6.53;;;;;;;;;;10238611;28;20031;-83
2023/05/19 03:20:07;;;;;;;15.73;5.87;;;;;;;;;;10242980;28;20058;-84
2023/05/19 03:25:09;;;;;;;11.93;5.50;;;;;;;;;;10232904;28;20034;-82
2023/05/19 03:30:10;;;;;;;13.53;7.00;;;;;;;;;;10217206;28;20035;-82
2023/05/19 03:35:11;;;;;;;15.30;6.67;;;;;;;;;;10241776;28;20057;-85
2023/05/19 03:40:12;;;;;;;11.60;6.00;;;;;;;;;;10224606;28;20030;-84
2023/05/19 03:45:13;;;;;;;18.40;7.00;;;;;;;;;;10237190;28;20090;-82
2023/05/19 03:50:14;;;;;;;14.37;6.63;;;;;;;;;;10230666;28;20581;-83
2023/05/19 03:55:15;;;;;;;11.57;6.17;;;;;;;;;;10242406;28;20038;-84
2023/05/19 04:00:16;;;;;;;13.77;6.50;;;;;;;;;;10242266;28;20031;-83
2023/05/19 04:05:17;;;;;;;13.70;7.00;;;;;;;;;;10224237;28;20058;-81
2023/05/19 04:10:19;;;;;;;13.73;6.97;;;;;;;;;;10241905;28;20031;-82
2023/05/19 04:15:20;;;;;;;16.90;8.20;;;;;;;;;;10233399;28;20035;-82
2023/05/19 04:20:21;;;;;;;12.93;7.33;;;;;;;;;;10224384;28;20032;-82
2023/05/19 04:25:24;;;;;;;14.57;7.70;;;;;;;;;;10214470;28;20549;-84
2023/05/19 04:30:25;;;;;;;15.23;8.50;;;;;;;;;;10233074;28;20573;-83
2023/05/19 04:35:26;;;;;;;16.10;7.60;;;;;;;;;;10221971;28;20038;-84
2023/05/19 04:40:29;;;;;;;16.60;9.20;;;;;;;;;;10223178;28;20046;-83
2023/05/19 04:45:31;;;;;;;15.20;8.30;;;;;;;;;;10240954;28;20468;-84
2023/05/19 04:50:32;;;;;;;13.13;7.53;;;;;;;;;;10223759;28;20498;-84
2023/05/19 04:55:33;;;;;;;16.40;8.68;;;;;;;;;;10246286;28;20046;-84
2023/05/19 05:00:34;;;;;;;17.27;8.57;;;;;;;;;;10235534;28;20046;-83
2023/05/19 05:05:35;;;;;;;18.55;9.07;;;;;;;;;;10248025;28;20113;-84
2023/05/19 05:10:36;;;;;;;15.23;9.02;;;;;;;;;;10247839;28;20031;-83
2023/05/19 05:15:37;;;;;;;19.60;9.20;;;;;;;;;;10247463;28;20034;-83
2023/05/19 05:20:38;;;;;;;14.13;8.88;;;;;;;;;;10247710;28;20081;-83
2023/05/19 05:25:40;;;;;;;19.40;10.73;;;;;;;;;;10230223;28;20039;-83
2023/05/19 05:30:42;;;;;;;17.30;10.35;;;;;;;;;;10247008;28;20122;-83
2023/05/19 05:35:43;;;;;;;18.48;10.73;;;;;;;;;;10247080;28;20061;-82
2023/05/19 05:40:44;;;;;;;19.02;11.10;;;;;;;;;;10229821;28;20142;-84
2023/05/19 05:45:45;;;;;;;20.38;11.95;;;;;;;;;;10246611;28;20027;-83
2023/05/19 05:50:48;;;;;;;23.27;12.93;;;;;;;;;;10246197;28;20086;-84
2023/05/19 05:55:49;;;;;;;20.38;13.18;;;;;;;;;;10246788;28;20042;-83
2023/05/19 06:00:52;;;;;;;23.88;12.35;;;;;;;;;;10246432;28;20027;-83
2023/05/19 06:05:53;;;;;;;22.15;12.23;;;;;;;;;;10227640;28;20055;-82
2023/05/19 06:10:54;;;;;;;21.92;12.00;;;;;;;;;;10245629;28;20030;-83
2023/05/19 06:15:55;;;;;;;20.13;12.27;;;;;;;;;;10245755;28;20054;-84
2023/05/19 06:20:58;;;;;;;22.63;13.25;;;;;;;;;;10245659;28;20370;-83
2023/05/19 06:25:59;;;;;;;21.90;12.70;;;;;;;;;;10245632;28;20031;-84
2023/05/19 06:31:00;;;;;;;25.90;14.20;;;;;;;;;;10244479;28;20094;-82
2023/05/19 06:36:03;;;;;;;22.52;13.20;;;;;;;;;;10245101;28;20423;-84
2023/05/19 06:41:04;;;;;;;21.60;13.43;;;;;;;;;;10244462;28;20031;-83
2023/05/19 06:46:05;;;;;;;21.05;11.98;;;;;;;;;;10244569;28;20035;-84
2023/05/19 06:51:08;;;;;;;29.27;14.40;;;;;;;;;;10244945;28;20023;-82
2023/05/19 06:56:11;;;;;;;26.38;15.63;;;;;;;;;;10244042;28;20861;-83
2023/05/19 07:01:12;;;;;;;26.63;14.18;;;;;;;;;;10244634;28;20062;-84
2023/05/19 07:06:13;;;;;;;24.73;12.90;;;;;;;;;;10243626;28;20058;-83
2023/05/19 07:11:15;;;;;;;24.23;12.93;;;;;;;;;;10244091;28;20147;-84
2023/05/19 07:16:18;;;;;;;21.27;12.82;;;;;;;;;;10242568;28;20813;-83
2023/05/19 07:21:21;;;;;;;20.73;12.90;;;;;;;;;;10243300;28;20032;-84
2023/05/19 07:26:23;;;;;;;20.25;10.38;;;;;;;;;;10243387;28;20535;-83
2023/05/19 07:31:28;;;;;;;14.30;8.77;;;;;;;;;;10242578;28;20047;-85
2023/05/19 07:36:31;;;;;;;15.13;9.57;;;;;;;;;;10242472;28;20051;-84
2023/05/19 07:41:32;;;;;;;22.33;10.10;;;;;;;;;;10242654;28;20600;-85
2023/05/19 07:46:33;;;;;;;16.77;10.02;;;;;;;;;;10243119;28;20158;-83
2023/05/19 07:51:36;;;;;;;18.60;10.68;;;;;;;;;;10224989;28;20035;-84
2023/05/19 07:56:37;;;;;;;19.67;10.40;;;;;;;;;;10242765;28;20038;-85
2023/05/19 08:01:38;;;;;;;15.95;8.98;;;;;;;;;;10242141;28;20031;-84
2023/05/19 08:06:41;;;;;;;17.67;10.35;;;;;;;;;;10241214;28;20059;-82
2023/05/19 08:11:45;;;;;;;16.73;10.55;;;;;;;;;;10241834;28;20031;-85
2023/05/19 08:16:52;;;;;;;15.55;9.80;;;;;;;;;;10241570;28;20472;-85
2023/05/19 08:21:54;;;;;;;16.27;9.27;;;;;;;;;;10241195;28;20099;-83
2023/05/19 08:26:55;;;;;;;15.13;9.77;;;;;;;;;;10240736;28;20019;-86
2023/05/19 08:31:57;;;;;;;20.40;10.82;;;;;;;;;;10241022;28;20043;-83
2023/05/19 08:36:58;;;;;;;16.40;10.13;;;;;;;;;;10240750;28;20031;-85
2023/05/19 08:42:00;;;;;;;17.35;10.07;;;;;;;;;;10240835;28;20424;-83
2023/05/19 08:47:04;;;;;;;19.23;11.55;;;;;;;;;;10241235;28;20027;-84
2023/05/19 08:52:23;;;;;;;17.75;10.90;;;;;;;;;;10223540;28;20075;-83
2023/05/19 08:57:27;;;;;;;20.00;10.80;;;;;;;;;;10240339;28;20487;-84
2023/05/19 09:02:28;;;;;;;17.85;10.75;;;;;;;;;;10240680;28;20039;-85
2023/05/19 09:07:33;;;;;;;13.73;8.38;;;;;;;;;;10240090;28;20126;-83
2023/05/19 09:12:35;;;;;;;15.00;8.35;;;;;;;;;;10240078;28;20066;-84
2023/05/19 09:17:36;;;;;;;11.85;7.53;;;;;;;;;;10240637;28;20039;-82
2023/05/19 09:22:47;;;;;;;13.23;8.07;;;;;;;;;;10240203;28;20494;-84
2023/05/19 09:27:48;;;;;;;12.82;7.68;;;;;;;;;;10240029;28;20153;-85
2023/05/19 09:32:53;;;;;;;14.60;7.25;;;;;;;;;;10222594;28;20600;-85
2023/05/19 09:37:54;;;;;;;12.55;6.65;;;;;;;;;;10239878;28;20038;-84
2023/05/19 09:42:55;;;;;;;11.00;6.65;;;;;;;;;;10247178;28;20039;-84
2023/05/19 09:47:58;;;;;;;11.13;6.80;;;;;;;;;;10259830;28;20050;-83
2023/05/19 09:52:59;;;;;;;15.93;7.28;;;;;;;;;;10246696;28;20098;-83
2023/05/19 09:58:03;;;;;;;11.10;7.32;;;;;;;;;;10246955;28;20023;-83
2023/05/19 10:03:06;;;;;;;12.63;7.70;;;;;;;;;;10247222;28;20047;-84
2023/05/19 10:08:09;;;;;;;10.52;7.43;;;;;;;;;;10246049;28;20051;-83
2023/05/19 10:13:10;;;;;;;12.77;6.20;;;;;;;;;;10245677;28;20039;-84
2023/05/19 10:18:11;;;;;;;10.30;6.10;;;;;;;;;;10228836;28;20141;-84
2023/05/19 10:23:12;;;;;;;10.27;6.10;;;;;;;;;;10245201;28;20384;-83
2023/05/19 10:28:22;;;;;;;10.18;6.05;;;;;;;;;;10246177;28;20042;-83
2023/05/19 10:33:28;;;;;;;11.43;6.95;;;;;;;;;;10245564;28;20039;-84
2023/05/19 10:38:41;;;;;;;11.85;6.78;;;;;;;;;;10245307;28;20039;-84
2023/05/19 10:43:46;;;;;;;10.32;6.40;;;;;;;;;;10227290;28;20035;-84
2023/05/19 10:48:47;;;;;;;10.95;7.40;;;;;;;;;;10245433;28;20058;-84
2023/05/19 10:53:50;;;;;;;9.70;6.45;;;;;;;;;;10244671;28;20634;-84
2023/05/19 10:58:51;;;;;;;10.40;6.88;;;;;;;;;;10244307;28;20031;-84
2023/05/19 11:03:58;;;;;;;9.52;6.07;;;;;;;;;;10243782;28;20031;-84
2023/05/19 11:09:02;;;;;;;7.88;5.78;;;;;;;;;;10243836;28;20023;-84
2023/05/19 11:14:03;;;;;;;8.65;5.88;;;;;;;;;;10243554;28;20525;-84
2023/05/19 11:19:08;;;;;;;9.52;6.63;;;;;;;;;;10243602;28;20038;-84
2023/05/19 11:24:11;;;;;;;10.88;6.40;;;;;;;;;;10242980;28;20027;-83
2023/05/19 11:29:12;;;;;;;9.50;5.95;;;;;;;;;;10243700;28;20042;-84
2023/05/19 11:34:18;;;;;;;9.55;6.38;;;;;;;;;;10225055;28;20500;-83
2023/05/19 11:39:19;;;;;;;9.57;6.15;;;;;;;;;;10242554;28;20188;-84
2023/05/19 11:44:20;;;;;;;11.77;7.43;;;;;;;;;;10242260;28;20050;-84
2023/05/19 11:49:23;;;;;;;13.85;8.38;;;;;;;;;;10242478;28;20391;-84
2023/05/19 11:54:38;;;;;;;11.18;7.65;;;;;;;;;;10242226;28;20542;-84
2023/05/19 11:59:44;;;;;;;12.80;7.45;;;;;;;;;;10241900;28;20444;-84
2023/05/19 12:04:45;;;;;;;9.00;6.47;;;;;;;;;;10224145;28;20443;-84
2023/05/19 12:09:47;;;;;;;12.65;7.53;;;;;;;;;;10241954;28;20034;-83
2023/05/19 12:14:52;;;;;;;10.93;7.20;;;;;;;;;;10241398;28;20055;-85
2023/05/19 12:19:53;;;;;;;11.13;6.68;;;;;;;;;;10241677;28;20834;-85
2023/05/19 12:24:55;;;;;;;10.90;6.57;;;;;;;;;;10223565;28;20037;-85
2023/05/19 12:29:56;;;;;;;13.05;7.57;;;;;;;;;;10241032;28;20074;-84
2023/05/19 12:34:57;;;;;;;9.13;6.00;;;;;;;;;;10241217;28;20044;-85
2023/05/19 12:39:59;;;;;;;8.27;6.13;;;;;;;;;;10241058;28;20027;-85
2023/05/19 12:45:01;;;;;;;8.88;6.03;;;;;;;;;;10223587;28;20297;-84
2023/05/19 12:50:04;;;;;;;11.75;6.50;;;;;;;;;;10223045;28;20097;-84
2023/05/19 12:55:09;;;;;;;11.63;6.68;;;;;;;;;;10233610;28;20044;-84
2023/05/19 13:00:19;;;;;;;11.02;7.43;;;;;;;;;;10235954;28;20472;-85
2023/05/19 13:05:21;;;;;;;9.18;6.55;;;;;;;;;;10239072;28;20490;-85
2023/05/19 13:10:25;;;;;;;8.77;6.80;;;;;;;;;;10243816;28;20119;-84
2023/05/19 13:15:33;;;;;;;11.70;7.40;;;;;;;;;;10240288;28;20134;-83
2023/05/19 13:20:34;;;;;;;8.63;7.15;;;;;;;;;;10246752;28;20031;-83
2023/05/19 13:25:35;;;;;;;11.00;6.43;;;;;;;;;;10244079;28;20031;-85
2023/05/19 13:30:37;;;;;;;10.88;7.13;;;;;;;;;;10226705;28;20046;-85
2023/05/19 13:35:38;;;;;;;8.10;6.50;;;;;;;;;;10244557;28;20043;-85
2023/05/19 13:40:40;;;;;;;8.95;6.80;;;;;;;;;;10215793;28;20054;-85
2023/05/19 13:45:43;;;;;;;10.02;6.85;;;;;;;;;;10238328;28;20051;-85
2023/05/19 13:50:44;;;;;;;8.25;6.78;;;;;;;;;;10229932;28;20530;-85
2023/05/19 13:55:46;;;;;;;14.13;6.93;;;;;;;;;;10216765;28;20657;-85
2023/05/19 14:00:52;;;;;;;9.68;7.03;;;;;;;;;;10211590;28;20110;-85
2023/05/19 14:05:53;;;;;;;10.77;7.28;;;;;;;;;;10218417;28;20047;-86
2023/05/19 14:10:56;;;;;;;11.48;8.20;;;;;;;;;;10220371;28;20031;-85
2023/05/19 14:15:58;;;;;;;16.90;8.60;;;;;;;;;;10244421;28;20054;-83
2023/05/19 14:21:00;;;;;;;10.45;7.93;;;;;;;;;;10240089;28;20043;-84
2023/05/19 14:26:01;;;;;;;11.25;8.07;;;;;;;;;;10226332;28;20024;-84
2023/05/19 14:31:02;;;;;;;11.63;9.15;;;;;;;;;;10243293;28;20031;-84
2023/05/19 14:36:04;;;;;;;14.32;9.63;;;;;;;;;;10218170;28;20035;-84
2023/05/19 14:41:05;;;;;;;13.82;10.57;;;;;;;;;;10234584;28;20043;-85
2023/05/19 14:46:07;;;;;;;12.35;8.82;;;;;;;;;;10241260;28;20439;-85
2023/05/19 14:51:08;;;;;;;12.73;9.50;;;;;;;;;;10243550;28;20039;-85
2023/05/19 14:56:09;;;;;;;9.98;8.20;;;;;;;;;;10244338;28;20035;-85
2023/05/19 15:01:10;;;;;;;13.68;8.15;;;;;;;;;;10244450;28;20034;-85
2023/05/19 15:06:11;;;;;;;12.57;9.20;;;;;;;;;;10243766;28;20724;-85
2023/05/19 15:11:12;;;;;;;14.88;10.07;;;;;;;;;;10242901;28;20502;-85
2023/05/19 15:16:13;;;;;;;12.98;9.25;;;;;;;;;;10243371;28;20023;-85
2023/05/19 15:21:14;;;;;;;14.68;10.68;;;;;;;;;;10244135;28;20024;-85
2023/05/19 15:26:15;;;;;;;13.80;10.43;;;;;;;;;;10243083;28;20475;-85
2023/05/19 15:31:17;;;;;;;14.00;10.85;;;;;;;;;;10243326;28;20035;-85
2023/05/19 15:36:18;;;;;;;15.40;10.80;;;;;;;;;;10242025;28;20039;-86
2023/05/19 15:41:20;;;;;;;12.80;10.10;;;;;;;;;;10242836;28;20027;-85
2023/05/19 15:46:21;;;;;;;14.55;10.40;;;;;;;;;;10242189;28;20114;-85
2023/05/19 15:51:23;;;;;;;16.88;10.75;;;;;;;;;;10242620;28;20024;-85
2023/05/19 15:56:24;;;;;;;17.58;12.38;;;;;;;;;;10243049;28;20484;-85
2023/05/19 16:01:25;;;;;;;16.48;13.15;;;;;;;;;;10241512;28;20019;-85
2023/05/19 16:06:26;;;;;;;18.73;13.20;;;;;;;;;;10240015;28;20047;-85
2023/05/19 16:11:27;;;;;;;21.52;15.00;;;;;;;;;;10241111;28;20047;-85
2023/05/19 16:16:28;;;;;;;23.25;14.98;;;;;;;;;;10241493;28;20110;-85
2023/05/19 16:21:31;;;;;;;29.27;20.02;;;;;;;;;;10242029;28;20097;-86
2023/05/19 16:26:33;;;;;;;26.75;18.25;;;;;;;;;;10241052;28;20034;-85
2023/05/19 16:31:37;;;;;;;26.55;16.40;;;;;;;;;;10223504;28;20463;-85
2023/05/19 16:36:39;;;;;;;21.48;13.13;;;;;;;;;;10238398;28;20391;-86
2023/05/19 16:41:40;;;;;;;19.20;13.13;;;;;;;;;;10203938;28;20039;-85
2023/05/19 16:46:41;;;;;;;20.02;13.88;;;;;;;;;;10237986;28;20058;-86
2023/05/19 16:51:42;;;;;;;20.85;14.15;;;;;;;;;;10244840;28;20043;-86
2023/05/19 16:56:43;;;;;;;20.95;13.65;;;;;;;;;;10247364;28;20050;-84
2023/05/19 17:01:44;;;;;;;21.25;14.18;;;;;;;;;;10228822;28;20027;-85
2023/05/19 17:06:45;;;;;;;21.55;14.60;;;;;;;;;;10241507;28;20055;-85
2023/05/19 17:11:46;;;;;;;22.63;13.18;;;;;;;;;;10271272;28;20041;-85
2023/05/19 17:16:47;;;;;;;19.92;12.57;;;;;;;;;;10230520;28;20436;-84
2023/05/19 17:21:48;;;;;;;20.77;13.93;;;;;;;;;;10248716;28;20114;-85
2023/05/19 17:26:49;;;;;;;20.40;13.93;;;;;;;;;;10247167;28;20596;-85
2023/05/19 17:31:51;;;;;;;22.73;13.80;;;;;;;;;;10220343;28;20043;-85
2023/05/19 17:36:52;;;;;;;21.95;14.13;;;;;;;;;;10222729;28;20038;-86
2023/05/19 17:41:53;;;;;;;24.98;15.70;;;;;;;;;;10237796;28;20031;-86
2023/05/19 17:46:54;;;;;;;24.50;14.80;;;;;;;;;;10246771;28;20035;-87
2023/05/19 17:51:55;;;;;;;26.13;17.27;;;;;;;;;;10222353;28;20460;-84
2023/05/19 17:56:58;;;;;;;24.25;15.65;;;;;;;;;;10258253;28;20085;-86
2023/05/19 18:01:59;;;;;;;23.55;15.23;;;;;;;;;;10245327;28;20034;-86
2023/05/19 18:07:02;;;;;;;21.02;14.63;;;;;;;;;;10203388;29;20562;-85
2023/05/19 18:12:04;;;;;;;24.55;15.93;;;;;;;;;;10204598;29;20543;-85
2023/05/19 18:17:05;;;;;;;22.73;15.82;;;;;;;;;;10206048;29;20433;-86
2023/05/19 18:22:11;;;;;;;25.20;14.80;;;;;;;;;;10205555;29;20031;-85
2023/05/19 18:27:12;;;;;;;24.92;15.77;;;;;;;;;;10204339;29;20035;-86
2023/05/19 18:32:15;;;;;;;24.67;15.45;;;;;;;;;;10203749;29;20039;-85
2023/05/19 18:37:17;;;;;;;28.50;17.48;;;;;;;;;;10204206;29;20160;-85
2023/05/19 18:42:18;;;;;;;32.88;18.92;;;;;;;;;;10203148;29;20047;-86
2023/05/19 18:47:21;;;;;;;28.20;17.98;;;;;;;;;;10205753;29;20087;-86
2023/05/19 18:52:22;;;;;;;28.40;17.30;;;;;;;;;;10211069;29;20122;-86
2023/05/19 18:57:23;;;;;;;27.73;17.80;;;;;;;;;;10205565;29;20069;-85
2023/05/19 19:02:24;;;;;;;31.17;18.55;;;;;;;;;;10201818;29;20380;-86
2023/05/19 19:07:26;;;;;;;34.30;21.80;;;;;;;;;;10202798;29;20479;-84
2023/05/19 19:12:27;;;;;;;40.75;22.13;;;;;;;;;;10202500;29;20088;-83
2023/05/19 19:17:28;;;;;;;34.22;20.50;;;;;;;;;;10191534;29;20164;-85
2023/05/19 19:22:30;;;;;;;26.65;17.83;;;;;;;;;;10196016;29;20079;-84
2023/05/19 19:27:34;;;;;;;24.33;17.15;;;;;;;;;;10195021;29;20039;-87
2023/05/19 19:32:35;;;;;;;36.20;20.23;;;;;;;;;;10210548;29;20040;-87
2023/05/19 19:37:36;;;;;;;28.67;17.60;;;;;;;;;;10202395;29;20035;-86
2023/05/19 19:42:37;;;;;;;29.58;17.40;;;;;;;;;;10229047;28;20031;-86
2023/05/19 19:47:38;;;;;;;27.27;16.73;;;;;;;;;;10214817;29;20506;-84
2023/05/19 19:52:39;;;;;;;25.73;15.98;;;;;;;;;;10198603;29;20051;-85
2023/05/19 19:57:43;;;;;;;27.50;16.80;;;;;;;;;;10194719;29;20100;-85
2023/05/19 20:02:44;;;;;;;42.05;25.20;;;;;;;;;;10208154;29;20036;-85
2023/05/19 20:07:45;;;;;;;35.97;21.80;;;;;;;;;;10238286;28;20055;-85
2023/05/19 20:12:46;;;;;;;28.13;17.63;;;;;;;;;;10240623;28;20440;-86
2023/05/19 20:17:47;;;;;;;32.50;18.60;;;;;;;;;;10255754;28;20023;-84
2023/05/19 20:22:48;;;;;;;32.63;19.35;;;;;;;;;;10246606;28;20023;-83
2023/05/19 20:27:49;;;;;;;29.30;16.25;;;;;;;;;;10239636;28;20143;-83
2023/05/19 20:32:50;;;;;;;33.70;18.13;;;;;;;;;;10239707;28;20709;-84
2023/05/19 20:37:51;;;;;;;28.60;17.35;;;;;;;;;;10239238;28;20030;-84
2023/05/19 20:42:52;;;;;;;32.75;18.58;;;;;;;;;;10256688;28;20873;-84
2023/05/19 20:47:53;;;;;;;35.78;19.63;;;;;;;;;;10251152;28;20028;-84
2023/05/19 20:52:54;;;;;;;43.45;24.02;;;;;;;;;;10235997;28;20047;-85
2023/05/19 20:57:55;;;;;;;34.30;19.83;;;;;;;;;;10224208;28;20062;-86
2023/05/19 21:02:57;;;;;;;28.27;17.13;;;;;;;;;;10242819;28;20054;-86
2023/05/19 21:07:58;;;;;;;28.33;17.27;;;;;;;;;;10248025;28;20062;-85
2023/05/19 21:12:59;;;;;;;30.67;19.30;;;;;;;;;;10223077;28;20031;-85
2023/05/19 21:18:00;;;;;;;28.90;17.30;;;;;;;;;;10242294;28;20039;-86
2023/05/19 21:23:01;;;;;;;30.67;18.58;;;;;;;;;;10239237;28;20042;-84
2023/05/19 21:28:02;;;;;;;29.55;17.95;;;;;;;;;;10222076;28;20043;-86
2023/05/19 21:33:03;;;;;;;32.08;18.20;;;;;;;;;;10241077;28;20038;-85
2023/05/19 21:38:04;;;;;;;38.58;21.00;;;;;;;;;;10249373;28;20554;-86
2023/05/19 21:43:05;;;;;;;34.10;19.35;;;;;;;;;;10246825;28;20039;-86
2023/05/19 21:48:06;;;;;;;33.03;20.13;;;;;;;;;;10250063;28;20045;-88
2023/05/19 21:53:07;;;;;;;35.33;21.83;;;;;;;;;;10246718;28;20061;-86
2023/05/19 21:58:08;;;;;;;33.85;19.75;;;;;;;;;;10223270;28;20037;-85
2023/05/19 22:03:11;;;;;;;39.22;21.33;;;;;;;;;;10252644;28;20616;-85
2023/05/19 22:08:12;;;;;;;35.30;20.65;;;;;;;;;;10245007;28;20051;-85
2023/05/19 22:13:13;;;;;;;42.83;23.38;;;;;;;;;;10243011;28;20043;-85
2023/05/19 22:18:14;;;;;;;40.78;22.35;;;;;;;;;;10228283;28;20061;-85
2023/05/19 22:23:15;;;;;;;43.85;25.10;;;;;;;;;;10246197;28;20033;-85
2023/05/19 22:28:16;;;;;;;41.40;24.40;;;;;;;;;;10244682;28;20032;-84
2023/05/19 22:33:17;;;;;;;44.30;25.83;;;;;;;;;;10251905;28;20117;-85
2023/05/19 22:38:18;;;;;;;44.85;24.05;;;;;;;;;;10246028;28;20059;-85
2023/05/19 22:43:19;;;;;;;40.35;22.25;;;;;;;;;;10226177;28;20035;-85
2023/05/19 22:48:20;;;;;;;47.50;24.65;;;;;;;;;;10246603;28;20035;-85
2023/05/19 22:53:21;;;;;;;55.70;29.70;;;;;;;;;;10244460;28;20023;-85
2023/05/19 22:58:22;;;;;;;46.13;25.45;;;;;;;;;;10244564;28;20479;-86
2023/05/19 23:03:23;;;;;;;52.53;30.08;;;;;;;;;;10248214;28;20505;-85
2023/05/19 23:08:24;;;;;;;58.45;32.45;;;;;;;;;;10250666;28;20411;-86
2023/05/19 23:13:25;;;;;;;63.47;32.70;;;;;;;;;;10244045;28;20605;-85
2023/05/19 23:18:26;;;;;;;53.00;27.70;;;;;;;;;;10247645;28;20506;-85
2023/05/19 23:23:27;;;;;;;56.58;30.35;;;;;;;;;;10244650;28;20043;-85
2023/05/19 23:28:28;;;;;;;50.47;26.73;;;;;;;;;;10225006;28;20471;-86
2023/05/19 23:33:29;;;;;;;55.15;27.92;;;;;;;;;;10253360;28;20051;-85
2023/05/19 23:38:30;;;;;;;43.28;24.70;;;;;;;;;;10252726;28;20038;-85
2023/05/19 23:43:31;;;;;;;58.65;29.25;;;;;;;;;;10234278;28;20110;-85
2023/05/19 23:48:32;;;;;;;53.85;27.98;;;;;;;;;;10251379;28;20035;-86
2023/05/19 23:53:33;;;;;;;45.22;26.00;;;;;;;;;;10246372;28;20085;-86
2023/05/19 23:58:34;;;;;;;40.88;22.63;;;;;;;;;;10237128;28;20039;-86
